createdAt,value
2022-08-14T00:00:38.163Z,45.44
2022-08-14T00:01:40.549Z,45.48
2022-08-14T00:02:43.154Z,45.62
2022-08-14T00:03:45.859Z,45.63
2022-08-14T00:04:47.339Z,45.34
2022-08-14T00:05:58.138Z,45.76
2022-08-14T00:07:06.171Z,46.48
2022-08-14T00:08:14.337Z,46.92
2022-08-14T00:09:16.051Z,46.76
2022-08-14T00:10:49.575Z,46.85
2022-08-14T00:11:43.539Z,47.27
2022-08-14T00:12:47.997Z,47.41
2022-08-14T00:13:58.393Z,47.53
2022-08-14T00:15:00.248Z,47.42
2022-08-14T00:16:01.821Z,47.35
2022-08-14T00:17:04.797Z,47.50
2022-08-14T00:18:08.462Z,47.41
2022-08-14T00:19:19.653Z,47.36
2022-08-14T00:20:31.053Z,47.06
2022-08-14T00:21:37.701Z,47.12
2022-08-14T00:22:44.308Z,47.75
2022-08-14T00:24:01.501Z,47.88
2022-08-14T00:25:04.537Z,48.11
2022-08-14T00:26:12.954Z,48.32
2022-08-14T00:27:23.577Z,48.89
2022-08-14T00:28:25.097Z,49.17
2022-08-14T00:29:40.509Z,49.30
2022-08-14T00:30:46.029Z,49.73
2022-08-14T00:31:47.581Z,49.79
2022-08-14T00:32:57.415Z,49.90
2022-08-14T00:34:37.592Z,49.92
2022-08-14T00:35:31.635Z,50.37
2022-08-14T00:36:48.648Z,50.18
2022-08-14T00:37:52.387Z,50.19
2022-08-14T00:38:54.185Z,50.29
2022-08-14T00:39:55.788Z,50.16
2022-08-14T00:40:57.351Z,49.66
2022-08-14T00:41:59.930Z,49.82
2022-08-14T00:43:02.789Z,50.03
2022-08-14T00:44:04.262Z,50.32
2022-08-14T00:45:10.052Z,50.13
2022-08-14T00:46:32.800Z,50.42
2022-08-14T00:47:37.569Z,50.33
2022-08-14T00:48:49.185Z,50.60
2022-08-14T00:49:52.098Z,50.87
2022-08-14T00:50:54.320Z,51.13
2022-08-14T00:51:58.123Z,51.59
2022-08-14T00:53:01.200Z,51.53
2022-08-14T00:54:02.900Z,51.73
2022-08-14T00:55:08.217Z,52.03
2022-08-14T00:56:10.441Z,52.00
2022-08-14T00:57:15.746Z,51.98
2022-08-14T00:58:18.725Z,52.05
2022-08-14T00:59:29.596Z,51.50
2022-08-14T01:00:37.344Z,51.63
2022-08-14T01:01:48.887Z,51.53
2022-08-14T01:02:53.839Z,51.86
2022-08-14T01:03:57.382Z,52.43
2022-08-14T01:04:59.843Z,52.70
2022-08-14T01:06:07.184Z,52.86
2022-08-14T01:07:09.176Z,53.14
2022-08-14T01:08:20.684Z,53.03
2022-08-14T01:09:36.083Z,53.10
2022-08-14T01:10:40.279Z,52.58
2022-08-14T01:11:45.138Z,52.84
2022-08-14T01:12:58.936Z,52.98
2022-08-14T01:14:01.270Z,52.77
2022-08-14T01:15:03.459Z,53.16
2022-08-14T01:16:07.459Z,53.39
2022-08-14T01:17:09.114Z,53.82
2022-08-14T01:18:11.318Z,53.74
2022-08-14T01:19:14.789Z,54.18
2022-08-14T01:20:27.711Z,54.38
2022-08-14T01:21:38.522Z,54.43
2022-08-14T01:22:40.410Z,54.82
2022-08-14T01:23:47.241Z,55.15
2022-08-14T01:24:50.959Z,55.16
2022-08-14T01:25:52.646Z,55.10
2022-08-14T01:26:54.197Z,55.13
2022-08-14T01:27:57.745Z,54.81
2022-08-14T01:28:59.650Z,54.65
2022-08-14T01:30:04.606Z,54.93
2022-08-14T01:31:08.901Z,54.96
2022-08-14T01:32:10.835Z,54.51
2022-08-14T01:33:12.396Z,54.04
2022-08-14T01:35:19.081Z,54.04
2022-08-14T01:36:04.640Z,54.89
2022-08-14T01:36:58.613Z,55.10
2022-08-14T01:38:00.374Z,55.01
2022-08-14T01:39:05.214Z,55.69
2022-08-14T01:40:15.487Z,55.47
2022-08-14T01:41:22.979Z,55.37
2022-08-14T01:42:31.295Z,55.68
2022-08-14T01:43:42.752Z,55.90
2022-08-14T01:44:58.270Z,56.40
2022-08-14T01:46:06.990Z,56.48
2022-08-14T01:47:11.975Z,56.25
2022-08-14T01:48:14.132Z,56.29
2022-08-14T01:49:15.810Z,57.21
2022-08-14T01:50:17.448Z,57.47
2022-08-14T01:51:21.568Z,57.08
2022-08-14T01:52:57.672Z,57.31
2022-08-14T01:53:48.207Z,56.51
2022-08-14T01:54:58.315Z,56.90
2022-08-14T01:56:05.048Z,56.68
2022-08-14T01:57:13.826Z,56.32
2022-08-14T01:58:18.503Z,56.85
2022-08-14T01:59:25.017Z,56.67
2022-08-14T02:00:38.989Z,56.15
2022-08-14T02:01:41.947Z,55.87
2022-08-14T02:02:52.922Z,56.09
2022-08-14T02:03:57.137Z,55.98
2022-08-14T02:04:59.492Z,55.97
2022-08-14T02:06:03.663Z,56.34
2022-08-14T02:07:27.263Z,56.44
2022-08-14T02:08:36.361Z,56.70
2022-08-14T02:09:55.879Z,56.86
2022-08-14T02:10:58.702Z,56.98
2022-08-14T02:12:00.791Z,57.29
2022-08-14T02:13:04.499Z,57.97
2022-08-14T02:14:14.268Z,58.47
2022-08-14T02:15:15.879Z,58.33
2022-08-14T02:16:22.933Z,58.57
2022-08-14T02:17:24.639Z,59.87
2022-08-14T02:18:26.160Z,60.03
2022-08-14T02:19:34.240Z,60.23
2022-08-14T02:20:36.120Z,60.42
2022-08-14T02:21:39.549Z,60.58
2022-08-14T02:22:48.241Z,60.91
2022-08-14T02:23:53.515Z,61.05
2022-08-14T02:24:55.349Z,60.82
2022-08-14T02:25:57.958Z,61.14
2022-08-14T02:28:25.030Z,61.30
2022-08-14T02:28:57.913Z,61.32
2022-08-14T02:30:00.068Z,61.40
2022-08-14T02:31:03.370Z,61.74
2022-08-14T02:32:10.545Z,61.94
2022-08-14T02:33:33.518Z,62.13
2022-08-14T02:34:36.427Z,61.87
2022-08-14T02:35:40.994Z,62.36
2022-08-14T02:37:05.020Z,62.33
2022-08-14T02:38:06.053Z,62.74
2022-08-14T02:39:14.977Z,62.80
2022-08-14T02:40:17.583Z,62.83
2022-08-14T02:41:19.126Z,62.87
2022-08-14T02:42:23.586Z,62.86
2022-08-14T02:43:48.247Z,62.70
2022-08-14T02:44:50.531Z,62.54
2022-08-14T02:45:53.295Z,62.17
2022-08-14T02:46:55.121Z,61.28
2022-08-14T02:48:04.961Z,61.62
2022-08-14T02:49:11.770Z,61.40
2022-08-14T02:50:14.850Z,61.42
2022-08-14T02:51:19.168Z,61.65
2022-08-14T02:52:55.556Z,61.62
2022-08-14T02:53:45.434Z,61.50
2022-08-14T02:54:47.905Z,61.60
2022-08-14T02:55:49.418Z,61.97
2022-08-14T02:57:16.476Z,61.77
2022-08-14T02:58:21.551Z,61.70
2022-08-14T02:59:34.195Z,61.21
2022-08-14T03:00:40.089Z,61.13
2022-08-14T03:01:50.476Z,61.31
2022-08-14T03:02:59.371Z,61.20
2022-08-14T03:04:02.136Z,61.19
2022-08-14T03:05:04.895Z,61.05
2022-08-14T03:06:08.919Z,60.80
2022-08-14T03:07:10.654Z,61.04
2022-08-14T03:08:19.137Z,60.99
2022-08-14T03:09:23.716Z,61.47
2022-08-14T03:10:32.147Z,61.58
2022-08-14T03:11:35.295Z,61.42
2022-08-14T03:12:37.211Z,61.52
2022-08-14T03:13:40.934Z,61.82
2022-08-14T03:14:42.427Z,61.23
2022-08-14T03:15:43.936Z,61.36
2022-08-14T03:16:49.323Z,61.43
2022-08-14T03:17:56.281Z,61.41
2022-08-14T03:19:05.692Z,61.02
2022-08-14T03:20:11.111Z,60.94
2022-08-14T03:21:15.056Z,60.72
2022-08-14T03:22:17.394Z,60.69
2022-08-14T03:23:20.399Z,60.73
2022-08-14T03:24:24.593Z,60.83
2022-08-14T03:25:27.076Z,60.88
2022-08-14T03:26:30.415Z,61.17
2022-08-14T03:27:35.309Z,61.32
2022-08-14T03:28:51.419Z,61.83
2022-08-14T03:29:52.932Z,61.86
2022-08-14T03:30:54.759Z,62.07
2022-08-14T03:31:56.764Z,61.80
2022-08-14T03:32:59.645Z,61.58
2022-08-14T03:34:01.161Z,61.86
2022-08-14T03:35:08.816Z,61.03
2022-08-14T03:37:51.891Z,60.32
2022-08-14T03:39:09.864Z,60.69
2022-08-14T03:39:16.003Z,60.60
2022-08-14T03:40:19.484Z,60.37
2022-08-14T03:41:23.596Z,59.82
2022-08-14T03:42:25.196Z,59.90
2022-08-14T03:43:37.654Z,59.21
2022-08-14T03:45:26.345Z,58.95
2022-08-14T03:46:01.985Z,58.81
2022-08-14T03:47:11.963Z,58.92
2022-08-14T03:48:26.732Z,58.55
2022-08-14T03:49:32.439Z,58.65
2022-08-14T03:50:35.557Z,58.55
2022-08-14T03:51:37.822Z,58.97
2022-08-14T03:52:48.055Z,59.16
2022-08-14T03:54:01.019Z,59.20
2022-08-14T03:56:36.722Z,59.66
2022-08-14T03:57:38.374Z,59.89
2022-08-14T03:58:44.218Z,59.93
2022-08-14T03:59:45.673Z,59.92
2022-08-14T04:00:47.254Z,59.80
2022-08-14T04:02:01.951Z,59.67
2022-08-14T04:03:05.688Z,59.80
2022-08-14T04:04:08.842Z,59.98
2022-08-14T04:05:12.872Z,60.14
2022-08-14T04:06:20.919Z,60.17
2022-08-14T04:07:22.774Z,60.36
2022-08-14T04:08:30.440Z,60.31
2022-08-14T04:09:32.717Z,60.02
2022-08-14T04:10:34.493Z,59.97
2022-08-14T04:11:37.822Z,60.02
2022-08-14T04:12:40.108Z,59.82
2022-08-14T04:13:42.544Z,59.88
2022-08-14T04:14:44.036Z,60.25
2022-08-14T04:16:01.480Z,60.21
2022-08-14T04:17:09.846Z,59.87
2022-08-14T04:18:12.165Z,59.42
2022-08-14T04:19:14.064Z,59.00
2022-08-14T04:20:15.523Z,58.82
2022-08-14T04:21:28.186Z,58.60
2022-08-14T04:22:30.019Z,58.08
2022-08-14T04:23:33.374Z,58.08
2022-08-14T04:24:38.620Z,58.14
2022-08-14T04:25:40.783Z,57.98
2022-08-14T04:26:44.100Z,58.39
2022-08-14T04:28:01.652Z,58.72
2022-08-14T04:29:14.491Z,59.48
2022-08-14T04:30:24.183Z,59.74
2022-08-14T04:32:58.105Z,59.94
2022-08-14T04:33:00.366Z,59.65
2022-08-14T04:34:05.453Z,60.24
2022-08-14T04:35:11.050Z,60.53
2022-08-14T04:36:15.740Z,60.66
2022-08-14T04:37:24.608Z,61.06
2022-08-14T04:38:37.024Z,61.17
2022-08-14T04:39:46.582Z,61.11
2022-08-14T04:40:48.314Z,61.01
2022-08-14T04:41:58.402Z,61.03
2022-08-14T04:43:00.610Z,61.32
2022-08-14T04:44:02.732Z,61.00
2022-08-14T04:45:06.341Z,60.68
2022-08-14T04:46:55.299Z,60.71
2022-08-14T04:47:32.398Z,60.64
2022-08-14T04:48:42.970Z,61.14
2022-08-14T04:49:46.698Z,61.71
2022-08-14T04:50:59.220Z,62.32
2022-08-14T04:52:03.071Z,62.07
2022-08-14T04:53:23.229Z,63.14
2022-08-14T04:54:27.859Z,63.53
2022-08-14T04:55:29.777Z,64.12
2022-08-14T04:56:34.189Z,64.32
2022-08-14T04:57:38.354Z,64.23
2022-08-14T04:58:41.269Z,64.06
2022-08-14T04:59:42.994Z,63.87
2022-08-14T05:00:44.665Z,63.95
2022-08-14T05:01:52.863Z,64.35
2022-08-14T05:02:57.948Z,64.60
2022-08-14T05:03:59.429Z,64.55
2022-08-14T05:05:01.385Z,64.56
2022-08-14T05:06:06.323Z,65.05
2022-08-14T05:07:33.926Z,64.81
2022-08-14T05:08:56.795Z,65.69
2022-08-14T05:10:01.007Z,66.08
2022-08-14T05:11:14.586Z,66.54
2022-08-14T05:13:11.273Z,66.71
2022-08-14T05:14:08.260Z,66.57
2022-08-14T05:15:01.374Z,66.58
2022-08-14T05:16:04.192Z,66.79
2022-08-14T05:17:08.324Z,67.00
2022-08-14T05:18:17.641Z,66.60
2022-08-14T05:19:33.739Z,65.54
2022-08-14T05:21:54.898Z,65.35
2022-08-14T05:22:17.287Z,65.14
2022-08-14T05:23:22.504Z,64.62
2022-08-14T05:24:25.233Z,65.43
2022-08-14T05:25:31.068Z,64.38
2022-08-14T05:26:35.269Z,64.02
2022-08-14T05:27:36.956Z,64.19
2022-08-14T05:28:41.827Z,64.67
2022-08-14T05:29:43.330Z,62.22
2022-08-14T05:30:45.747Z,64.07
2022-08-14T05:31:47.717Z,62.98
2022-08-14T05:32:49.214Z,63.38
2022-08-14T05:33:56.947Z,63.86
2022-08-14T05:34:59.791Z,63.56
2022-08-14T05:36:05.074Z,61.62
2022-08-14T05:37:06.751Z,62.33
2022-08-14T05:38:10.681Z,61.72
2022-08-14T05:39:23.693Z,61.30
2022-08-14T05:40:26.248Z,61.68
2022-08-14T05:41:52.458Z,61.72
2022-08-14T05:42:52.876Z,61.23
2022-08-14T05:43:55.877Z,62.50
2022-08-14T05:44:57.420Z,61.89
2022-08-14T05:45:59.576Z,63.48
2022-08-14T05:47:01.192Z,63.25
2022-08-14T05:48:04.066Z,62.46
2022-08-14T05:49:10.909Z,62.93
2022-08-14T05:50:17.225Z,61.09
2022-08-14T05:51:21.113Z,62.57
2022-08-14T05:52:26.437Z,62.57
2022-08-14T05:53:42.375Z,62.92
2022-08-14T05:54:44.128Z,62.18
2022-08-14T05:55:45.929Z,60.91
2022-08-14T05:56:47.451Z,61.82
2022-08-14T05:57:54.615Z,60.39
2022-08-14T05:59:00.783Z,61.89
2022-08-14T06:00:02.654Z,60.50
2022-08-14T06:01:04.600Z,60.12
2022-08-14T06:02:10.208Z,59.85
2022-08-14T06:03:13.908Z,61.30
2022-08-14T06:04:15.370Z,60.70
2022-08-14T06:05:17.327Z,59.75
2022-08-14T06:06:24.898Z,59.15
2022-08-14T06:07:27.646Z,58.42
2022-08-14T06:08:36.063Z,61.38
2022-08-14T06:09:42.935Z,60.20
2022-08-14T06:10:54.224Z,59.55
2022-08-14T06:11:55.696Z,60.39
2022-08-14T06:12:59.754Z,60.44
2022-08-14T06:14:02.590Z,59.18
2022-08-14T06:15:08.092Z,60.55
2022-08-14T06:16:09.805Z,59.42
2022-08-14T06:17:15.676Z,58.74
2022-08-14T06:18:27.588Z,59.04
2022-08-14T06:19:34.194Z,60.29
2022-08-14T06:20:35.910Z,60.48
2022-08-14T06:21:37.395Z,58.93
2022-08-14T06:22:39.205Z,58.62
2022-08-14T06:23:41.534Z,56.60
2022-08-14T06:24:44.090Z,59.11
2022-08-14T06:25:45.764Z,57.82
2022-08-14T06:27:03.938Z,57.45
2022-08-14T06:28:06.153Z,58.67
2022-08-14T06:29:32.435Z,58.18
2022-08-14T06:30:46.206Z,55.91
2022-08-14T06:31:54.852Z,59.95
2022-08-14T06:33:06.673Z,58.08
2022-08-14T06:35:09.677Z,56.28
2022-08-14T06:35:29.767Z,57.04
2022-08-14T06:36:32.048Z,56.09
2022-08-14T06:37:41.643Z,57.55
2022-08-14T06:38:43.161Z,56.32
2022-08-14T06:39:44.659Z,56.46
2022-08-14T06:40:47.899Z,55.77
2022-08-14T06:41:57.893Z,55.22
2022-08-14T06:43:03.380Z,54.15
2022-08-14T06:44:05.286Z,53.10
2022-08-14T06:45:12.509Z,53.00
2022-08-14T06:46:32.546Z,52.56
2022-08-14T06:47:40.021Z,54.32
2022-08-14T06:48:45.478Z,54.51
2022-08-14T06:49:54.588Z,53.37
2022-08-14T06:50:59.530Z,52.65
2022-08-14T06:52:02.180Z,53.92
2022-08-14T06:53:03.690Z,52.53
2022-08-14T06:54:06.668Z,52.18
2022-08-14T06:55:12.067Z,52.87
2022-08-14T06:56:14.729Z,52.11
2022-08-14T06:57:16.230Z,51.70
2022-08-14T06:58:28.701Z,51.55
2022-08-14T06:59:33.721Z,52.54
2022-08-14T07:00:36.725Z,52.02
2022-08-14T07:01:38.228Z,52.94
2022-08-14T07:02:43.693Z,52.14
2022-08-14T07:03:45.420Z,49.54
2022-08-14T07:04:48.188Z,50.34
2022-08-14T07:05:57.708Z,47.31
2022-08-14T07:06:59.903Z,48.31
2022-08-14T07:08:01.609Z,46.22
2022-08-14T07:09:03.415Z,47.47
2022-08-14T07:10:07.450Z,47.82
2022-08-14T07:11:14.803Z,47.25
2022-08-14T07:12:54.555Z,49.02
2022-08-14T07:13:38.390Z,48.39
2022-08-14T07:14:41.347Z,50.54
2022-08-14T07:15:45.465Z,47.15
2022-08-14T07:16:52.278Z,47.07
2022-08-14T07:17:53.922Z,45.87
2022-08-14T07:18:55.521Z,44.72
2022-08-14T07:19:57.035Z,46.55
2022-08-14T07:20:59.851Z,48.63
2022-08-14T07:22:05.368Z,49.38
2022-08-14T07:23:10.786Z,49.85
2022-08-14T07:24:21.654Z,51.36
2022-08-14T07:25:32.461Z,50.77
2022-08-14T07:26:34.503Z,50.33
2022-08-14T07:27:40.821Z,49.08
2022-08-14T07:28:44.662Z,47.08
2022-08-14T07:29:46.132Z,50.54
2022-08-14T07:30:50.796Z,49.25
2022-08-14T07:31:53.383Z,49.63
2022-08-14T07:32:54.936Z,48.82
2022-08-14T07:33:56.686Z,49.41
2022-08-14T07:35:00.311Z,50.75
2022-08-14T07:36:09.061Z,49.45
2022-08-14T07:37:26.814Z,47.61
2022-08-14T07:38:34.004Z,47.65
2022-08-14T07:39:38.638Z,44.37
2022-08-14T07:40:40.325Z,43.99
2022-08-14T07:41:46.918Z,44.50
2022-08-14T07:42:50.202Z,42.73
2022-08-14T07:43:55.447Z,42.29
2022-08-14T07:44:57.474Z,42.47
2022-08-14T07:46:00.339Z,44.00
2022-08-14T07:47:04.646Z,41.31
2022-08-14T07:48:07.226Z,41.14
2022-08-14T07:49:11.625Z,43.27
2022-08-14T07:50:20.160Z,41.75
2022-08-14T07:51:21.825Z,41.09
2022-08-14T07:52:30.853Z,40.42
2022-08-14T07:53:34.102Z,40.31
2022-08-14T07:54:41.290Z,41.01
2022-08-14T07:55:44.677Z,43.19
2022-08-14T07:56:50.561Z,40.92
2022-08-14T07:57:54.788Z,40.34
2022-08-14T07:58:59.081Z,40.13
2022-08-14T08:00:00.698Z,40.60
2022-08-14T08:01:05.805Z,39.46
2022-08-14T08:02:18.673Z,41.00
2022-08-14T08:03:23.580Z,41.50
2022-08-14T08:04:28.612Z,40.54
2022-08-14T08:05:36.672Z,40.27
2022-08-14T08:06:38.998Z,40.51
2022-08-14T08:07:41.931Z,40.18
2022-08-14T08:08:58.830Z,39.55
2022-08-14T08:10:07.016Z,39.46
2022-08-14T08:11:14.907Z,38.46
2022-08-14T08:12:19.653Z,38.80
2022-08-14T08:13:24.006Z,39.65
2022-08-14T08:14:26.894Z,38.24
2022-08-14T08:15:31.596Z,37.85
2022-08-14T08:16:35.072Z,37.70
2022-08-14T08:17:42.879Z,37.07
2022-08-14T08:19:01.777Z,37.35
2022-08-14T08:20:09.076Z,37.91
2022-08-14T08:21:12.978Z,39.91
2022-08-14T08:22:15.120Z,38.62
2022-08-14T08:23:20.603Z,39.23
2022-08-14T08:24:22.224Z,36.99
2022-08-14T08:25:24.463Z,37.16
2022-08-14T08:26:29.863Z,37.13
2022-08-14T08:27:31.350Z,37.41
2022-08-14T08:28:32.852Z,38.23
2022-08-14T08:29:35.927Z,37.30
2022-08-14T08:30:45.067Z,37.50
2022-08-14T08:31:52.727Z,38.04
2022-08-14T08:32:55.685Z,36.92
2022-08-14T08:33:57.300Z,36.94
2022-08-14T08:34:58.771Z,36.33
2022-08-14T08:36:04.210Z,35.81
2022-08-14T08:37:07.366Z,36.35
2022-08-14T08:39:14.155Z,37.04
2022-08-14T08:40:01.563Z,35.94
2022-08-14T08:41:03.916Z,36.40
2022-08-14T08:42:06.213Z,36.25
2022-08-14T08:43:18.022Z,36.07
2022-08-14T08:44:31.990Z,35.59
2022-08-14T08:45:36.662Z,35.03
2022-08-14T08:46:38.271Z,35.63
2022-08-14T08:47:42.115Z,36.21
2022-08-14T08:48:53.695Z,35.22
2022-08-14T08:49:59.954Z,35.96
2022-08-14T08:51:03.354Z,35.72
2022-08-14T08:52:06.511Z,35.73
2022-08-14T08:53:16.859Z,36.11
2022-08-14T08:54:20.109Z,35.73
2022-08-14T08:55:34.083Z,35.71
2022-08-14T08:56:39.678Z,35.49
2022-08-14T08:57:41.584Z,34.17
2022-08-14T08:58:43.045Z,35.02
2022-08-14T08:59:44.543Z,35.07
2022-08-14T09:00:49.538Z,35.04
2022-08-14T09:01:56.494Z,35.52
2022-08-14T09:03:04.482Z,34.51
2022-08-14T09:04:07.652Z,34.92
2022-08-14T09:05:16.484Z,35.75
2022-08-14T09:06:54.456Z,35.27
2022-08-14T09:07:39.377Z,35.18
2022-08-14T09:08:45.750Z,36.16
2022-08-14T09:09:54.030Z,36.70
2022-08-14T09:11:02.900Z,36.60
2022-08-14T09:12:21.528Z,36.07
2022-08-14T09:13:23.781Z,36.15
2022-08-14T09:14:26.901Z,35.80
2022-08-14T09:15:36.779Z,35.65
2022-08-14T09:16:48.230Z,35.93
2022-08-14T09:17:52.460Z,36.04
2022-08-14T09:18:57.576Z,36.25
2022-08-14T09:20:02.114Z,36.62
2022-08-14T09:21:07.071Z,36.50
2022-08-14T09:22:36.580Z,36.40
2022-08-14T09:23:35.118Z,37.79
2022-08-14T09:24:51.851Z,37.98
2022-08-14T09:26:01.441Z,37.39
2022-08-14T09:27:03.652Z,36.90
2022-08-14T09:28:09.024Z,36.96
2022-08-14T09:29:11.534Z,37.33
2022-08-14T09:30:32.183Z,37.15
2022-08-14T09:31:42.963Z,37.62
2022-08-14T09:33:33.796Z,37.69
2022-08-14T09:34:58.545Z,37.15
2022-08-14T09:36:27.351Z,36.90
2022-08-14T09:37:40.651Z,36.87
2022-08-14T09:38:47.346Z,37.17
2022-08-14T09:40:03.824Z,37.27
2022-08-14T09:41:13.482Z,37.23
2022-08-14T09:42:33.302Z,37.64
2022-08-14T09:43:46.808Z,37.25
2022-08-14T09:45:08.413Z,37.85
2022-08-14T09:46:10.403Z,36.63
2022-08-14T09:47:18.621Z,37.34
2022-08-14T09:48:29.353Z,37.21
2022-08-14T09:49:40.842Z,37.15
2022-08-14T09:50:47.182Z,36.99
2022-08-14T09:51:51.760Z,36.27
2022-08-14T09:53:02.467Z,35.93
2022-08-14T09:54:19.354Z,35.88
2022-08-14T09:55:26.207Z,34.76
2022-08-14T09:56:30.682Z,34.78
2022-08-14T09:57:33.427Z,35.31
2022-08-14T09:58:38.401Z,35.55
2022-08-14T09:59:42.311Z,35.83
2022-08-14T10:00:46.006Z,35.99
2022-08-14T10:01:53.124Z,36.24
2022-08-14T10:02:56.314Z,36.86
2022-08-14T10:03:59.726Z,35.39
2022-08-14T10:05:04.658Z,35.82
2022-08-14T10:06:14.074Z,35.60
2022-08-14T10:07:15.704Z,35.70
2022-08-14T10:08:25.479Z,35.71
2022-08-14T10:09:28.003Z,36.25
2022-08-14T10:10:38.470Z,36.35
2022-08-14T10:11:58.863Z,36.86
2022-08-14T10:13:02.731Z,36.62
2022-08-14T10:14:15.014Z,35.40
2022-08-14T10:15:23.936Z,35.32
2022-08-14T10:16:33.224Z,35.22
2022-08-14T10:17:38.507Z,35.49
2022-08-14T10:18:41.381Z,35.76
2022-08-14T10:19:48.165Z,36.16
2022-08-14T10:20:55.464Z,35.70
2022-08-14T10:23:15.230Z,35.18
2022-08-14T10:23:26.036Z,34.88
2022-08-14T10:24:36.097Z,34.65
2022-08-14T10:25:43.910Z,34.08
2022-08-14T10:26:56.336Z,34.00
2022-08-14T10:28:02.092Z,34.45
2022-08-14T10:29:19.408Z,34.01
2022-08-14T10:30:32.258Z,33.67
2022-08-14T10:31:43.271Z,34.44
2022-08-14T10:32:49.800Z,34.20
2022-08-14T10:34:02.222Z,33.17
2022-08-14T10:35:06.554Z,33.05
2022-08-14T10:36:34.720Z,32.41
2022-08-14T10:37:40.051Z,32.70
2022-08-14T10:38:41.960Z,32.40
2022-08-14T10:40:05.851Z,32.94
2022-08-14T10:41:21.071Z,32.20
2022-08-14T10:42:22.777Z,31.82
2022-08-14T10:43:26.616Z,33.37
2022-08-14T10:44:34.085Z,32.82
2022-08-14T10:45:46.235Z,31.71
2022-08-14T10:47:40.511Z,32.62
2022-08-14T10:48:24.431Z,31.74
2022-08-14T10:49:38.146Z,31.67
2022-08-14T10:50:42.648Z,32.94
2022-08-14T10:51:59.601Z,31.62
2022-08-14T10:53:02.696Z,31.72
2022-08-14T10:54:26.155Z,32.27
2022-08-14T10:55:33.076Z,32.24
2022-08-14T10:56:39.894Z,32.07
2022-08-14T10:57:49.339Z,31.58
2022-08-14T10:59:00.002Z,31.61
2022-08-14T11:00:12.244Z,30.50
2022-08-14T11:01:14.810Z,28.91
2022-08-14T11:02:18.513Z,30.37
2022-08-14T11:03:56.377Z,30.84
2022-08-14T11:05:06.123Z,31.08
2022-08-14T11:06:14.153Z,31.26
2022-08-14T11:07:20.689Z,31.57
2022-08-14T11:08:32.808Z,32.12
2022-08-14T11:09:35.350Z,32.26
2022-08-14T11:10:43.436Z,31.92
2022-08-14T11:11:44.928Z,33.21
2022-08-14T11:12:48.060Z,32.63
2022-08-14T11:13:49.760Z,32.41
2022-08-14T11:14:59.206Z,32.22
2022-08-14T11:16:04.387Z,31.97
2022-08-14T11:17:08.768Z,31.66
2022-08-14T11:18:12.014Z,31.16
2022-08-14T11:19:24.982Z,28.03
2022-08-14T11:20:28.683Z,28.57
2022-08-14T11:21:34.269Z,29.11
2022-08-14T11:22:56.180Z,28.87
2022-08-14T11:24:02.455Z,29.70
2022-08-14T11:25:41.263Z,27.81
2022-08-14T11:26:46.658Z,27.87
2022-08-14T11:27:49.485Z,30.72
2022-08-14T11:28:52.901Z,27.88
2022-08-14T11:30:49.180Z,28.06
2022-08-14T11:31:23.253Z,27.40
2022-08-14T11:32:24.824Z,28.50
2022-08-14T11:33:29.337Z,27.53
2022-08-14T11:34:33.724Z,27.62
2022-08-14T11:35:43.842Z,28.26
2022-08-14T11:37:09.695Z,26.32
2022-08-14T11:38:08.684Z,27.10
2022-08-14T11:39:18.699Z,26.30
2022-08-14T11:40:37.304Z,26.72
2022-08-14T11:41:43.134Z,26.77
2022-08-14T11:43:07.845Z,26.37
2022-08-14T11:44:17.584Z,26.96
2022-08-14T11:45:32.708Z,26.78
2022-08-14T11:46:40.364Z,27.08
2022-08-14T11:48:10.603Z,27.59
2022-08-14T11:49:05.950Z,26.34
2022-08-14T11:50:25.069Z,26.63
2022-08-14T11:51:52.881Z,25.88
2022-08-14T11:52:55.973Z,26.56
2022-08-14T11:54:05.630Z,25.48
2022-08-14T11:55:11.176Z,26.14
2022-08-14T11:56:13.102Z,26.66
2022-08-14T11:57:15.198Z,25.93
2022-08-14T11:58:25.970Z,25.02
2022-08-14T11:59:32.765Z,24.76
2022-08-14T12:00:46.675Z,25.43
2022-08-14T12:01:49.414Z,26.13
2022-08-14T12:03:03.467Z,25.98
2022-08-14T12:04:31.901Z,26.73
2022-08-14T12:05:35.882Z,27.18
2022-08-14T12:06:46.252Z,27.47
2022-08-14T12:07:51.049Z,27.36
2022-08-14T12:08:56.215Z,27.15
2022-08-14T12:10:01.183Z,27.93
2022-08-14T12:11:23.795Z,27.02
2022-08-14T12:12:35.286Z,26.27
2022-08-14T12:13:38.104Z,25.62
2022-08-14T12:14:50.307Z,25.91
2022-08-14T12:15:58.898Z,26.22
2022-08-14T12:17:01.980Z,26.30
2022-08-14T12:18:04.615Z,26.07
2022-08-14T12:19:06.248Z,26.57
2022-08-14T12:20:11.717Z,27.19
2022-08-14T12:21:19.304Z,26.03
2022-08-14T12:22:33.084Z,26.14
2022-08-14T12:23:35.460Z,26.76
2022-08-14T12:24:40.139Z,26.57
2022-08-14T12:25:42.466Z,26.30
2022-08-14T12:26:57.840Z,26.19
2022-08-14T12:28:03.182Z,27.06
2022-08-14T12:29:06.516Z,27.44
2022-08-14T12:30:12.844Z,28.70
2022-08-14T12:31:16.778Z,27.43
2022-08-14T12:32:22.280Z,26.43
2022-08-14T12:33:26.993Z,26.58
2022-08-14T12:34:34.655Z,26.92
2022-08-14T12:35:39.597Z,27.23
2022-08-14T12:36:41.379Z,26.78
2022-08-14T12:37:48.599Z,27.18
2022-08-14T12:38:50.130Z,27.27
2022-08-14T12:39:55.756Z,26.25
2022-08-14T12:40:58.767Z,25.42
2022-08-14T12:42:02.377Z,24.91
2022-08-14T12:43:03.889Z,26.85
2022-08-14T12:44:06.956Z,25.34
2022-08-14T12:45:12.504Z,25.28
2022-08-14T12:46:28.374Z,25.62
2022-08-14T12:47:30.488Z,25.17
2022-08-14T12:48:32.643Z,24.82
2022-08-14T12:49:34.504Z,25.32
2022-08-14T12:50:38.465Z,25.65
2022-08-14T12:51:42.751Z,25.33
2022-08-14T12:52:55.959Z,25.04
2022-08-14T12:54:26.100Z,24.97
2022-08-14T12:55:32.660Z,24.55
2022-08-14T12:57:02.274Z,25.03
2022-08-14T12:58:34.938Z,24.48
2022-08-14T12:59:30.232Z,25.46
2022-08-14T13:00:34.608Z,24.07
2022-08-14T13:01:59.112Z,24.81
2022-08-14T13:02:58.677Z,24.01
2022-08-14T13:04:04.755Z,25.28
2022-08-14T13:05:08.300Z,23.59
2022-08-14T13:06:09.914Z,22.95
2022-08-14T13:07:12.103Z,22.95
2022-08-14T13:08:33.067Z,23.58
2022-08-14T13:09:36.500Z,23.61
2022-08-14T13:10:51.431Z,24.19
2022-08-14T13:11:59.079Z,23.93
2022-08-14T13:13:17.771Z,23.48
2022-08-14T13:14:29.770Z,23.32
2022-08-14T13:15:31.733Z,23.33
2022-08-14T13:16:38.160Z,23.38
2022-08-14T13:17:42.561Z,23.20
2022-08-14T13:18:46.598Z,23.68
2022-08-14T13:19:49.029Z,24.99
2022-08-14T13:20:57.704Z,24.57
2022-08-14T13:22:09.330Z,25.54
2022-08-14T13:23:12.562Z,25.35
2022-08-14T13:24:20.012Z,25.34
2022-08-14T13:25:23.071Z,24.97
2022-08-14T13:26:28.310Z,24.74
2022-08-14T13:27:32.302Z,25.19
2022-08-14T13:29:01.440Z,25.07
2022-08-14T13:30:10.480Z,24.81
2022-08-14T13:31:15.858Z,25.27
2022-08-14T13:32:18.590Z,25.20
2022-08-14T13:33:20.106Z,24.31
2022-08-14T13:34:25.284Z,24.41
2022-08-14T13:35:27.074Z,24.24
2022-08-14T13:36:54.800Z,24.38
2022-08-14T13:37:53.606Z,24.75
2022-08-14T13:38:55.557Z,25.34
2022-08-14T13:39:57.890Z,24.78
2022-08-14T13:40:59.778Z,24.55
2022-08-14T13:42:05.373Z,24.47
2022-08-14T13:43:13.113Z,25.00
2022-08-14T13:44:22.070Z,24.68
2022-08-14T13:45:59.832Z,24.60
2022-08-14T13:46:48.896Z,24.38
2022-08-14T13:47:50.935Z,23.88
2022-08-14T13:48:52.818Z,23.39
2022-08-14T13:49:58.145Z,23.38
2022-08-14T13:51:03.001Z,23.80
2022-08-14T13:52:48.369Z,24.44
2022-08-14T13:53:27.247Z,25.34
2022-08-14T13:54:36.371Z,24.06
2022-08-14T13:55:40.497Z,24.56
2022-08-14T13:56:43.188Z,24.81
2022-08-14T13:57:49.212Z,24.18
2022-08-14T13:58:51.958Z,25.45
2022-08-14T13:59:55.665Z,27.20
2022-08-14T14:00:57.773Z,25.49
2022-08-14T14:02:04.841Z,23.51
2022-08-14T14:03:08.708Z,28.30
2022-08-14T14:04:19.268Z,24.45
2022-08-14T14:05:21.917Z,24.28
2022-08-14T14:06:25.034Z,24.63
2022-08-14T14:07:32.034Z,24.63
2022-08-14T14:08:46.303Z,26.55
2022-08-14T14:09:52.804Z,24.39
2022-08-14T14:10:56.221Z,26.28
2022-08-14T14:11:58.988Z,27.33
2022-08-14T14:13:02.330Z,25.03
2022-08-14T14:14:03.781Z,25.37
2022-08-14T14:15:10.393Z,24.91
2022-08-14T14:16:15.270Z,24.88
2022-08-14T14:17:24.181Z,24.82
2022-08-14T14:18:34.619Z,24.75
2022-08-14T14:19:36.683Z,24.43
2022-08-14T14:20:39.167Z,23.88
2022-08-14T14:21:41.801Z,23.75
2022-08-14T14:23:01.379Z,23.74
2022-08-14T14:24:04.942Z,24.38
2022-08-14T14:25:07.030Z,24.25
2022-08-14T14:26:13.983Z,24.29
2022-08-14T14:27:39.517Z,24.18
2022-08-14T14:28:37.866Z,24.03